sensor_id;sensor_type;location;lat;lon;timestamp;pressure;altitude;pressure_sealevel;temperature;humidity
69593;BME280;56796;50.122;14.468;2023-05-09T00:10:22;987.24;;;8.24;67.96
69593;BME280;56796;50.122;14.468;2023-05-09T00:29:48;987.15;;;8.14;67.25
69593;BME280;56796;50.122;14.468;2023-05-09T00:49:14;986.98;;;7.96;67.14
69593;BME280;56796;50.122;14.468;2023-05-09T01:08:42;986.86;;;7.77;67.23
69593;BME280;56796;50.122;14.468;2023-05-09T01:28:06;986.76;;;7.65;67.4
69593;BME280;56796;50.122;14.468;2023-05-09T01:47:30;986.74;;;7.5;68.03
69593;BME280;56796;50.122;14.468;2023-05-09T02:06:56;986.57;;;7.26;68.71
69593;BME280;56796;50.122;14.468;2023-05-09T02:26:22;986.41;;;7.07;69.4
69593;BME280;56796;50.122;14.468;2023-05-09T02:45:47;986.45;;;6.86;70.01
69593;BME280;56796;50.122;14.468;2023-05-09T03:05:13;986.36;;;6.66;70.6
69593;BME280;56796;50.122;14.468;2023-05-09T03:24:39;986.28;;;6.49;71.04
69593;BME280;56796;50.122;14.468;2023-05-09T03:44:05;986.28;;;6.52;71.15
69593;BME280;56796;50.122;14.468;2023-05-09T04:03:31;986.27;;;6.8;70.57
69593;BME280;56796;50.122;14.468;2023-05-09T04:22:59;986.22;;;7.22;69.82
69593;BME280;56796;50.122;14.468;2023-05-09T04:42:26;986.14;;;7.71;68.02
69593;BME280;56796;50.122;14.468;2023-05-09T05:01:54;986.15;;;8;67.15
69593;BME280;56796;50.122;14.468;2023-05-09T05:21:22;986.1;;;8.1;66.13
69593;BME280;56796;50.122;14.468;2023-05-09T05:40:50;986.07;;;8.39;65.08
69593;BME280;56796;50.122;14.468;2023-05-09T06:00:18;985.9;;;8.93;64.53
69593;BME280;56796;50.122;14.468;2023-05-09T06:19:50;985.8;;;10.08;61.03
69593;BME280;56796;50.122;14.468;2023-05-09T06:39:24;985.57;;;10.58;59.21
69593;BME280;56796;50.122;14.468;2023-05-09T06:58:55;985.32;;;12.21;55.17
69593;BME280;56796;50.122;14.468;2023-05-09T07:18:26;985.18;;;13.03;55.73
69593;BME280;56796;50.122;14.468;2023-05-09T07:37:55;985.02;;;13.86;51.22
69593;BME280;56796;50.122;14.468;2023-05-09T07:57:26;984.68;;;14.79;50.37
69593;BME280;56796;50.122;14.468;2023-05-09T08:16:58;984.45;;;16.08;47.34
69593;BME280;56796;50.122;14.468;2023-05-09T08:36:28;984.39;;;16.45;46.28
69593;BME280;56796;50.122;14.468;2023-05-09T08:55:58;984.05;;;17.53;45.26
69593;BME280;56796;50.122;14.468;2023-05-09T09:15:33;983.96;;;16.52;45.92
69593;BME280;56796;50.122;14.468;2023-05-09T09:34:59;983.72;;;17.73;44.43
69593;BME280;56796;50.122;14.468;2023-05-09T09:54:24;983.47;;;17.51;46.2
69593;BME280;56796;50.122;14.468;2023-05-09T10:13:52;983.21;;;19.03;43.47
69593;BME280;56796;50.122;14.468;2023-05-09T10:33:22;982.96;;;19.84;43.35
69593;BME280;56796;50.122;14.468;2023-05-09T11:12:20;982.3;;;19.76;43.78
69593;BME280;56796;50.122;14.468;2023-05-09T11:51:14;981.67;;;20.98;41.16
69593;BME280;56796;50.122;14.468;2023-05-09T12:10:41;981.36;;;20.85;42
69593;BME280;56796;50.122;14.468;2023-05-09T12:30:09;980.87;;;21.16;41.35
69593;BME280;56796;50.122;14.468;2023-05-09T12:49:44;980.68;;;21.25;37.4
69593;BME280;56796;50.122;14.468;2023-05-09T13:08:56;980.49;;;20.73;38.63
69593;BME280;56796;50.122;14.468;2023-05-09T13:28:18;980.32;;;20.98;37.12
69593;BME280;56796;50.122;14.468;2023-05-09T13:47:44;980.01;;;20.45;39.11
69593;BME280;56796;50.122;14.468;2023-05-09T14:07:16;979.54;;;20.93;37.31
69593;BME280;56796;50.122;14.468;2023-05-09T14:26:35;979.3;;;20.86;38.55
69593;BME280;56796;50.122;14.468;2023-05-09T14:46:00;979.15;;;20.12;37.68
69593;BME280;56796;50.122;14.468;2023-05-09T15:05:22;978.95;;;19.65;40.49
69593;BME280;56796;50.122;14.468;2023-05-09T15:24:47;978.72;;;19.23;41
69593;BME280;56796;50.122;14.468;2023-05-09T15:44:12;978.56;;;18.61;42.53
69593;BME280;56796;50.122;14.468;2023-05-09T16:03:37;978.6;;;18.41;42.75
69593;BME280;56796;50.122;14.468;2023-05-09T16:23:02;978.29;;;18.03;43.46
69593;BME280;56796;50.122;14.468;2023-05-09T16:42:25;978.18;;;17.79;45.26
69593;BME280;56796;50.122;14.468;2023-05-09T17:01:50;978.12;;;17.32;46.43
69593;BME280;56796;50.122;14.468;2023-05-09T17:21:15;978.09;;;16.98;46.96
69593;BME280;56796;50.122;14.468;2023-05-09T17:40:40;978.03;;;16.66;47.8
69593;BME280;56796;50.122;14.468;2023-05-09T18:00:06;977.96;;;16.19;49.75
69593;BME280;56796;50.122;14.468;2023-05-09T18:19:37;977.98;;;15.7;50.65
69593;BME280;56796;50.122;14.468;2023-05-09T18:38:50;977.86;;;15.29;51.8
69593;BME280;56796;50.122;14.468;2023-05-09T18:58:15;977.86;;;14.94;52.97
69593;BME280;56796;50.122;14.468;2023-05-09T19:17:39;977.9;;;14.45;55.22
69593;BME280;56796;50.122;14.468;2023-05-09T19:37:04;977.84;;;13.99;56.67
69593;BME280;56796;50.122;14.468;2023-05-09T19:56:29;977.7;;;13.74;57.36
69593;BME280;56796;50.122;14.468;2023-05-09T20:15:54;977.71;;;13.61;57.5
69593;BME280;56796;50.122;14.468;2023-05-09T20:35:19;977.47;;;13.42;58.16
69593;BME280;56796;50.122;14.468;2023-05-09T20:54:44;977.41;;;13.13;59.02
69593;BME280;56796;50.122;14.468;2023-05-09T21:14:10;977.14;;;12.8;60.26
69593;BME280;56796;50.122;14.468;2023-05-09T21:33:38;976.97;;;12.33;62.24
69593;BME280;56796;50.122;14.468;2023-05-09T21:52:56;976.82;;;11.97;63.4
69593;BME280;56796;50.122;14.468;2023-05-09T22:12:21;976.54;;;11.69;64.18
69593;BME280;56796;50.122;14.468;2023-05-09T22:31:47;976.41;;;11.49;64.68
69593;BME280;56796;50.122;14.468;2023-05-09T22:51:16;976.39;;;11.23;65.4
69593;BME280;56796;50.122;14.468;2023-05-09T23:10:34;976.22;;;10.98;65.82
69593;BME280;56796;50.122;14.468;2023-05-09T23:30:00;976.09;;;10.75;66.42
69593;BME280;56796;50.122;14.468;2023-05-09T23:49:26;975.9;;;10.48;67.16
